Time;durP1;ratioP1;P1;durP2;ratioP2;P2;SDS_P1;SDS_P2;PMS_P1;PMS_P2;Temp;Humidity;BMP_temperature;BMP_pressure;BME280_temperature;BME280_humidity;BME280_pressure;Samples;Min_cycle;Max_cycle;Signal;HPM_P1;HPM_P2
2022/04/06 00:01:53;;;;;;;14.50;8.35;;;21.10;50.00;;;;;;5077061;28;20040;-72
2022/04/06 00:04:19;;;;;;;14.43;9.07;;;21.00;49.90;;;;;;5077203;28;20048;-72
2022/04/06 00:06:45;;;;;;;14.93;8.57;;;21.00;49.80;;;;;;5077147;28;20096;-72
2022/04/06 00:09:11;;;;;;;15.18;8.77;;;20.90;49.80;;;;;;5077163;28;20044;-72
2022/04/06 00:11:37;;;;;;;17.27;9.18;;;21.00;49.80;;;;;;5076798;28;20043;-72
2022/04/06 00:14:04;;;;;;;13.45;8.20;;;21.10;49.90;;;;;;5076805;28;20041;-71
2022/04/06 00:16:30;;;;;;;15.73;8.15;;;21.00;49.80;;;;;;5076944;28;20060;-72
2022/04/06 00:18:56;;;;;;;15.40;7.30;;;21.00;49.80;;;;;;5074568;28;20051;-72
2022/04/06 00:21:25;;;;;;;10.57;7.00;;;20.90;49.80;;;;;;5076395;28;20029;-71
2022/04/06 00:23:51;;;;;;;12.35;8.15;;;20.90;49.80;;;;;;5076435;28;20037;-72
2022/04/06 00:26:17;;;;;;;13.38;7.75;;;21.00;49.80;;;;;;5076780;28;20060;-73
2022/04/06 00:28:43;;;;;;;15.60;8.10;;;20.90;49.80;;;;;;5077010;28;20075;-71
2022/04/06 00:31:09;;;;;;;12.55;8.00;;;20.90;49.80;;;;;;5076044;28;20037;-71
2022/04/06 00:33:36;;;;;;;13.95;8.93;;;20.90;49.80;;;;;;5076080;28;20075;-71
2022/04/06 00:36:02;;;;;;;13.50;8.55;;;20.90;49.70;;;;;;5076729;28;20041;-72
2022/04/06 00:38:28;;;;;;;14.00;8.15;;;21.00;49.70;;;;;;5076730;28;20124;-72
2022/04/06 00:40:54;;;;;;;16.50;8.65;;;20.90;49.60;;;;;;5076526;28;20085;-72
2022/04/06 00:43:20;;;;;;;12.82;7.63;;;20.90;49.60;;;;;;5076619;28;20048;-71
2022/04/06 00:45:46;;;;;;;13.88;8.25;;;20.90;49.60;;;;;;5076570;28;20032;-72
2022/04/06 00:48:13;;;;;;;15.23;8.45;;;20.90;49.60;;;;;;5076594;28;20041;-71
2022/04/06 00:50:41;;;;;;;15.63;8.48;;;20.90;49.60;;;;;;5076514;28;20041;-72
2022/04/06 00:53:08;;;;;;;15.77;8.00;;;20.90;49.60;;;;;;5076687;28;20091;-71
2022/04/06 00:55:37;;;;;;;14.52;8.80;;;20.90;49.70;;;;;;5075535;28;20041;-72
2022/04/06 00:58:04;;;;;;;11.70;8.25;;;20.90;49.70;;;;;;5076670;28;20041;-71
2022/04/06 01:00:31;;;;;;;13.23;7.97;;;20.80;49.80;;;;;;5076437;28;20060;-72
2022/04/06 01:02:58;;;;;;;14.70;7.13;;;20.90;49.90;;;;;;5076408;28;20096;-71
2022/04/06 01:05:25;;;;;;;14.68;8.32;;;20.80;50.00;;;;;;5076508;28;20257;-72
2022/04/06 01:07:54;;;;;;;11.00;7.30;;;20.80;50.10;;;;;;5076477;28;20489;-71
2022/04/06 01:10:21;;;;;;;14.25;8.30;;;20.80;50.10;;;;;;5076271;28;20033;-71
2022/04/06 01:12:48;;;;;;;10.70;8.68;;;20.70;50.00;;;;;;5076362;28;20045;-71
2022/04/06 01:15:17;;;;;;;13.25;8.38;;;20.70;49.90;;;;;;5076347;28;20104;-72
2022/04/06 01:17:44;;;;;;;13.65;8.75;;;20.80;49.90;;;;;;5075969;28;20056;-72
2022/04/06 01:20:13;;;;;;;13.15;9.30;;;20.70;49.90;;;;;;5076325;28;20037;-71
2022/04/06 01:22:39;;;;;;;15.82;9.75;;;20.90;50.00;;;;;;5076007;28;20045;-71
2022/04/06 01:25:06;;;;;;;20.45;9.13;;;20.80;49.70;;;;;;5076321;28;20074;-71
2022/04/06 01:27:33;;;;;;;17.25;8.55;;;20.70;49.70;;;;;;5076252;28;20051;-71
2022/04/06 01:29:59;;;;;;;16.92;8.27;;;20.80;49.70;;;;;;5076085;28;20037;-71
2022/04/06 01:32:27;;;;;;;13.68;8.10;;;20.80;49.70;;;;;;5076126;28;20041;-71
2022/04/06 01:34:54;;;;;;;14.32;9.30;;;20.70;49.70;;;;;;5076217;28;20091;-72
2022/04/06 01:37:22;;;;;;;17.77;9.23;;;20.90;49.80;;;;;;5076126;28;20045;-71
2022/04/06 01:39:50;;;;;;;13.98;8.30;;;20.70;49.70;;;;;;5075974;28;20143;-71
2022/04/06 01:42:18;;;;;;;24.08;8.88;;;20.80;49.70;;;;;;5075986;28;20041;-71
2022/04/06 01:44:47;;;;;;;12.93;7.85;;;20.80;49.60;;;;;;5077696;28;20044;-72
2022/04/06 01:47:15;;;;;;;19.50;8.43;;;20.70;49.50;;;;;;5079608;28;20033;-72
2022/04/06 01:52:27;;;;;;;15.70;8.13;;;20.80;49.50;;;;;;5079485;28;20045;-71
2022/04/06 01:55:01;;;;;;;16.05;8.48;;;20.80;49.40;;;;;;5079505;28;20040;-71
2022/04/06 01:57:29;;;;;;;13.38;8.00;;;20.80;49.50;;;;;;5079713;28;20052;-72
2022/04/06 01:59:55;;;;;;;14.77;8.98;;;20.80;49.50;;;;;;5079720;28;20037;-72
2022/04/06 02:02:24;;;;;;;12.60;8.07;;;20.80;49.50;;;;;;5079486;28;20051;-72
2022/04/06 02:04:50;;;;;;;11.13;8.25;;;20.70;49.50;;;;;;5079450;28;20056;-72
2022/04/06 02:07:17;;;;;;;12.20;8.27;;;20.80;49.40;;;;;;5079542;28;20041;-72
2022/04/06 02:09:44;;;;;;;11.50;6.93;;;20.70;49.50;;;;;;5079603;28;20104;-71
2022/04/06 02:12:11;;;;;;;10.38;7.03;;;20.70;49.50;;;;;;5079281;28;20067;-72
2022/04/06 02:14:42;;;;;;;11.13;7.38;;;20.60;49.40;;;;;;5079397;28;20033;-72
2022/04/06 02:17:09;;;;;;;12.75;7.25;;;20.50;49.50;;;;;;5079425;28;20120;-72
2022/04/06 02:19:36;;;;;;;11.93;7.88;;;20.60;49.50;;;;;;5079296;28;20041;-71
2022/04/06 02:22:04;;;;;;;11.00;7.18;;;20.60;49.50;;;;;;5078948;28;20041;-71
2022/04/06 02:24:31;;;;;;;13.18;7.35;;;20.60;49.50;;;;;;5078198;28;20037;-71
2022/04/06 02:26:57;;;;;;;11.50;7.55;;;20.60;49.40;;;;;;5079063;28;20039;-72
2022/04/06 02:29:24;;;;;;;13.18;6.90;;;20.70;49.50;;;;;;5079134;28;20041;-72
2022/04/06 02:31:50;;;;;;;11.13;7.43;;;20.60;49.40;;;;;;5078976;28;20067;-71
2022/04/06 02:34:16;;;;;;;12.38;7.93;;;20.70;49.50;;;;;;5078955;28;20045;-72
2022/04/06 02:36:42;;;;;;;10.20;6.95;;;20.60;49.40;;;;;;5078320;28;20051;-72
2022/04/06 02:39:09;;;;;;;10.90;7.07;;;20.50;49.50;;;;;;5078880;28;20048;-71
2022/04/06 02:41:35;;;;;;;11.10;6.72;;;20.70;49.60;;;;;;5078661;28;20044;-71
2022/04/06 02:44:01;;;;;;;11.48;7.68;;;20.60;49.30;;;;;;5078818;28;20075;-72
2022/04/06 02:46:27;;;;;;;10.23;6.68;;;20.60;49.30;;;;;;5078851;28;20041;-72
2022/04/06 02:48:53;;;;;;;13.95;6.57;;;20.70;49.40;;;;;;5078828;28;20115;-72
2022/04/06 02:51:19;;;;;;;11.10;6.85;;;20.60;49.20;;;;;;5078548;28;20044;-72
2022/04/06 02:53:45;;;;;;;12.68;7.25;;;20.60;49.20;;;;;;5078560;28;20040;-71
2022/04/06 02:56:11;;;;;;;10.45;6.95;;;20.70;49.20;;;;;;5076972;28;20049;-71
2022/04/06 02:58:37;;;;;;;9.15;6.63;;;20.60;49.10;;;;;;5078564;28;20053;-71
2022/04/06 03:01:03;;;;;;;9.85;6.32;;;20.70;49.20;;;;;;5077412;28;20036;-71
2022/04/06 03:03:30;;;;;;;10.25;6.97;;;20.50;49.10;;;;;;5078379;28;20072;-71
2022/04/06 03:05:56;;;;;;;9.98;7.03;;;20.60;49.20;;;;;;5078411;28;20048;-72
2022/04/06 03:08:23;;;;;;;11.15;7.05;;;20.60;49.30;;;;;;5078270;28;20092;-72
2022/04/06 03:10:49;;;;;;;9.55;7.07;;;20.60;49.30;;;;;;5078420;28;20045;-72
2022/04/06 03:13:15;;;;;;;12.20;7.07;;;20.60;49.30;;;;;;5078179;28;20064;-72
2022/04/06 03:15:42;;;;;;;15.70;8.45;;;20.50;49.30;;;;;;5078150;28;20044;-72
2022/04/06 03:18:08;;;;;;;13.38;7.95;;;20.50;49.30;;;;;;5078332;28;20036;-71
2022/04/06 03:20:35;;;;;;;13.32;6.97;;;20.50;49.20;;;;;;5078244;28;20137;-71
2022/04/06 03:23:03;;;;;;;10.50;6.72;;;20.40;49.20;;;;;;5077893;28;20033;-71
2022/04/06 03:25:29;;;;;;;16.35;8.80;;;20.50;49.20;;;;;;5078155;28;20029;-71
2022/04/06 03:27:55;;;;;;;14.85;8.00;;;20.50;49.10;;;;;;5078116;28;20041;-71
2022/04/06 03:30:21;;;;;;;15.55;8.18;;;20.50;49.10;;;;;;5077905;28;20045;-72
2022/04/06 03:32:48;;;;;;;12.82;8.07;;;20.40;49.00;;;;;;5077894;28;20079;-72
2022/04/06 03:35:15;;;;;;;12.75;8.27;;;20.50;49.10;;;;;;5077883;28;20048;-71
2022/04/06 03:37:41;;;;;;;15.55;9.57;;;20.50;49.10;;;;;;5077771;28;20041;-72
2022/04/06 03:40:08;;;;;;;14.02;7.78;;;20.50;49.00;;;;;;5077613;28;20061;-72
2022/04/06 03:42:34;;;;;;;16.40;9.07;;;20.40;48.90;;;;;;5077305;28;20068;-72
2022/04/06 03:45:01;;;;;;;18.63;8.50;;;20.50;49.00;;;;;;5077623;28;20045;-72
2022/04/06 03:47:32;;;;;;;13.15;8.32;;;20.60;48.90;;;;;;5077709;28;20037;-72
2022/04/06 03:49:59;;;;;;;15.93;8.75;;;20.60;48.90;;;;;;5077587;28;20124;-72
2022/04/06 03:52:26;;;;;;;17.40;8.75;;;20.50;49.00;;;;;;5076549;28;20052;-72
2022/04/06 03:54:53;;;;;;;13.18;8.15;;;20.50;49.10;;;;;;5077453;28;20101;-72
2022/04/06 03:57:19;;;;;;;12.25;7.22;;;20.60;49.00;;;;;;5076914;28;20044;-72
2022/04/06 03:59:45;;;;;;;12.75;7.88;;;20.70;48.90;;;;;;5077503;28;20044;-71
2022/04/06 04:02:12;;;;;;;10.55;8.02;;;20.80;48.80;;;;;;5076709;28;20043;-71
2022/04/06 04:04:39;;;;;;;12.90;7.63;;;20.80;48.70;;;;;;5076342;28;20053;-70
2022/04/06 04:07:08;;;;;;;19.70;9.45;;;20.90;48.60;;;;;;5075736;28;20057;-72
2022/04/06 04:09:35;;;;;;;23.58;11.05;;;20.90;48.60;;;;;;5076153;28;20036;-71
2022/04/06 04:12:03;;;;;;;21.63;10.82;;;20.80;48.70;;;;;;5076420;28;20047;-68
2022/04/06 04:14:34;;;;;;;23.30;11.18;;;20.90;48.90;;;;;;5076430;28;20052;-78
2022/04/06 04:17:01;;;;;;;20.15;10.68;;;21.00;51.80;;;;;;5076708;28;20116;-79
2022/04/06 04:19:28;;;;;;;37.10;13.82;;;21.20;52.50;;;;;;5075505;28;20064;-77
2022/04/06 04:21:54;;;;;;;25.35;11.38;;;21.50;54.10;;;;;;5076075;28;20101;-77
2022/04/06 04:24:20;;;;;;;22.92;9.63;;;21.90;53.80;;;;;;5076416;28;20045;-79
2022/04/06 04:26:46;;;;;;;16.50;8.70;;;21.90;52.90;;;;;;5076316;28;20040;-78
2022/04/06 04:29:13;;;;;;;21.50;9.40;;;21.90;48.60;;;;;;5076159;28;20037;-79
2022/04/06 04:31:39;;;;;;;15.35;8.52;;;21.90;46.40;;;;;;5075426;28;20041;-75
2022/04/06 04:34:05;;;;;;;22.92;11.85;;;22.00;46.00;;;;;;5075844;28;20104;-72
2022/04/06 04:36:32;;;;;;;23.40;10.82;;;21.80;45.40;;;;;;5076095;28;20047;-73
2022/04/06 04:38:58;;;;;;;12.32;7.38;;;21.70;45.10;;;;;;5075814;28;20044;-73
2022/04/06 04:41:25;;;;;;;9.10;6.78;;;21.50;45.70;;;;;;5076023;28;20058;-72
2022/04/06 04:43:52;;;;;;;12.20;8.27;;;21.40;46.20;;;;;;5075949;28;20045;-71
2022/04/06 04:46:19;;;;;;;10.40;6.50;;;21.50;46.80;;;;;;5075841;28;20048;-71
2022/04/06 04:48:45;;;;;;;10.95;7.07;;;21.30;47.20;;;;;;5075444;28;20048;-72
2022/04/06 04:51:12;;;;;;;15.80;8.63;;;21.50;47.70;;;;;;5076086;28;20041;-71
2022/04/06 04:53:39;;;;;;;15.90;7.95;;;21.40;48.00;;;;;;5075729;28;20131;-73
2022/04/06 04:56:06;;;;;;;22.45;8.77;;;21.40;48.40;;;;;;5075862;28;20048;-73
2022/04/06 04:58:32;;;;;;;17.33;9.05;;;21.40;48.70;;;;;;5075995;28;20055;-72
2022/04/06 05:00:58;;;;;;;12.45;6.55;;;21.30;46.50;;;;;;5075691;28;20040;-71
2022/04/06 05:03:24;;;;;;;9.05;4.72;;;21.30;43.30;;;;;;5075728;28;20076;-71
2022/04/06 05:05:53;;;;;;;10.20;4.40;;;21.40;44.40;;;;;;5075825;28;20116;-72
2022/04/06 05:08:20;;;;;;;8.18;4.93;;;21.50;45.50;;;;;;5075601;28;20036;-72
2022/04/06 05:10:46;;;;;;;11.68;6.32;;;21.50;44.70;;;;;;5075737;28;20043;-72
2022/04/06 05:13:17;;;;;;;8.02;5.43;;;21.50;43.20;;;;;;5075704;28;20045;-71
2022/04/06 05:15:45;;;;;;;6.35;4.35;;;21.60;40.70;;;;;;5073370;28;20040;-71
2022/04/06 05:18:11;;;;;;;10.15;5.30;;;21.50;40.40;;;;;;5068604;28;20056;-71
2022/04/06 05:20:38;;;;;;;13.73;5.55;;;21.40;39.80;;;;;;5078079;28;20055;-69
2022/04/06 05:23:04;;;;;;;11.18;5.63;;;21.50;39.90;;;;;;5078818;28;20076;-71
2022/04/06 05:25:31;;;;;;;9.32;4.85;;;21.30;40.80;;;;;;5078984;28;20033;-70
2022/04/06 05:27:57;;;;;;;13.35;5.25;;;21.50;41.10;;;;;;5078942;28;20066;-71
2022/04/06 05:30:25;;;;;;;8.77;5.57;;;21.50;41.80;;;;;;5079388;28;20065;-71
2022/04/06 05:32:53;;;;;;;9.00;5.55;;;21.60;41.50;;;;;;5078942;28;20083;-71
2022/04/06 05:35:20;;;;;;;12.52;5.68;;;21.70;41.30;;;;;;5078580;28;20059;-71
2022/04/06 05:37:46;;;;;;;10.80;5.25;;;21.70;40.90;;;;;;5078770;28;20045;-71
2022/04/06 05:40:15;;;;;;;17.75;4.63;;;21.90;37.90;;;;;;5078373;28;20060;-71
2022/04/06 05:42:41;;;;;;;12.55;5.32;;;21.90;36.50;;;;;;5077997;28;20075;-70
2022/04/06 05:45:09;;;;;;;7.00;4.40;;;22.00;38.10;;;;;;5078584;28;20109;-71
2022/04/06 05:47:35;;;;;;;7.50;4.32;;;22.10;40.90;;;;;;5078044;28;20047;-70
2022/04/06 05:50:03;;;;;;;13.18;5.22;;;22.10;41.10;;;;;;5075451;28;20104;-70
2022/04/06 05:52:29;;;;;;;6.97;4.82;;;22.10;37.90;;;;;;5079211;28;20084;-69
2022/04/06 05:54:55;;;;;;;13.90;4.22;;;22.20;38.00;;;;;;5078705;28;20131;-70
2022/04/06 05:57:22;;;;;;;21.88;6.43;;;22.20;36.30;;;;;;5078617;28;20029;-73
2022/04/06 05:59:49;;;;;;;10.88;4.93;;;22.20;42.50;;;;;;5078737;28;20037;-72
2022/04/06 06:02:15;;;;;;;14.23;5.47;;;22.30;44.70;;;;;;5061415;28;20044;-71
2022/04/06 06:04:41;;;;;;;13.32;6.63;;;22.40;48.10;;;;;;5092158;28;20040;-71
2022/04/06 06:07:08;;;;;;;13.68;6.53;;;22.50;50.20;;;;;;5078885;28;20096;-72
2022/04/06 06:09:35;;;;;;;9.20;5.82;;;22.50;50.20;;;;;;5078799;28;20071;-71
2022/04/06 06:12:02;;;;;;;8.73;5.90;;;22.60;50.40;;;;;;5078068;28;20040;-72
2022/04/06 06:14:28;;;;;;;16.17;6.90;;;22.40;50.90;;;;;;5078576;28;20048;-73
2022/04/06 06:16:54;;;;;;;9.65;6.00;;;22.40;50.20;;;;;;5078765;28;20059;-72
2022/04/06 06:19:21;;;;;;;15.32;6.97;;;22.30;51.20;;;;;;5078481;28;20045;-72
2022/04/06 06:21:47;;;;;;;9.23;6.03;;;22.30;51.60;;;;;;5078572;28;20040;-73
2022/04/06 06:24:13;;;;;;;9.38;6.10;;;22.30;51.60;;;;;;5078142;28;20056;-73
2022/04/06 06:26:42;;;;;;;13.90;5.65;;;22.20;51.40;;;;;;5078433;28;20033;-72
2022/04/06 06:29:08;;;;;;;12.13;6.47;;;22.30;52.00;;;;;;5077817;28;20040;-72
2022/04/06 06:31:35;;;;;;;13.57;6.72;;;22.20;52.20;;;;;;5077364;28;20032;-72
2022/04/06 06:34:01;;;;;;;11.38;6.40;;;22.30;52.40;;;;;;5078225;28;20051;-73
2022/04/06 06:36:28;;;;;;;9.07;6.25;;;22.20;52.30;;;;;;5078094;28;20040;-71
2022/04/06 06:38:55;;;;;;;11.68;6.13;;;22.30;52.60;;;;;;5077750;28;20112;-71
2022/04/06 06:41:22;;;;;;;9.68;5.70;;;22.10;52.60;;;;;;5078014;28;20063;-71
2022/04/06 06:43:49;;;;;;;13.50;6.47;;;22.20;52.80;;;;;;5077944;28;20048;-71
2022/04/06 06:46:18;;;;;;;11.60;6.72;;;22.20;53.40;;;;;;5077940;28;20048;-71
2022/04/06 06:48:45;;;;;;;14.27;6.13;;;22.20;53.30;;;;;;5078237;28;20041;-71
2022/04/06 06:51:12;;;;;;;10.43;5.20;;;22.30;53.10;;;;;;5078109;28;20037;-71
2022/04/06 06:53:39;;;;;;;5.75;4.18;;;22.20;52.80;;;;;;5077483;28;20090;-72
2022/04/06 06:56:06;;;;;;;6.78;3.70;;;22.30;52.80;;;;;;5077540;28;20092;-71
2022/04/06 06:58:32;;;;;;;7.35;3.60;;;22.30;53.10;;;;;;5077878;28;20044;-72
2022/04/06 07:00:59;;;;;;;4.80;3.13;;;22.30;53.60;;;;;;5077691;28;20048;-72
2022/04/06 07:03:25;;;;;;;7.53;4.00;;;22.20;53.70;;;;;;5077640;28;20060;-71
2022/04/06 07:05:52;;;;;;;6.22;3.05;;;22.30;52.80;;;;;;5077238;28;20539;-71
2022/04/06 07:08:19;;;;;;;3.80;3.00;;;22.40;53.30;;;;;;5076991;28;20037;-70
2022/04/06 07:10:45;;;;;;;7.55;3.58;;;22.30;53.60;;;;;;5076409;28;20021;-70
2022/04/06 07:13:12;;;;;;;5.32;2.92;;;22.30;55.10;;;;;;5076536;28;20071;-70
2022/04/06 07:15:40;;;;;;;7.10;3.33;;;22.30;55.50;;;;;;5077519;28;20039;-70
2022/04/06 07:18:07;;;;;;;5.80;2.53;;;22.40;55.10;;;;;;5077577;28;20056;-70
2022/04/06 07:20:37;;;;;;;6.43;3.03;;;22.30;54.40;;;;;;5076999;28;20104;-71
2022/04/06 07:23:07;;;;;;;8.38;3.63;;;22.30;53.50;;;;;;5077371;28;20060;-71
2022/04/06 07:25:34;;;;;;;5.30;3.20;;;22.20;53.60;;;;;;5077289;28;20037;-71
2022/04/06 07:28:01;;;;;;;8.68;3.60;;;22.40;52.50;;;;;;5077130;28;20040;-71
2022/04/06 07:30:27;;;;;;;4.63;2.83;;;22.40;53.30;;;;;;5077184;28;20880;-69
2022/04/06 07:32:54;;;;;;;2.35;2.15;;;22.40;53.70;;;;;;5077363;28;20048;-78
2022/04/06 07:35:21;;;;;;;1.48;0.98;;;22.40;54.50;;;;;;5077111;28;20037;-72
2022/04/06 07:37:48;;;;;;;4.60;1.52;;;22.40;53.90;;;;;;5077295;28;20031;-72
2022/04/06 07:40:17;;;;;;;4.35;1.50;;;22.40;53.40;;;;;;5077128;28;20052;-77
2022/04/06 07:42:43;;;;;;;0.70;0.70;;;22.50;51.00;;;;;;5076944;28;20059;-74
2022/04/06 07:45:13;;;;;;;2.15;1.65;;;22.40;51.90;;;;;;5077056;28;20047;-77
2022/04/06 07:47:40;;;;;;;0.40;0.32;;;22.40;50.50;;;;;;5076841;28;20054;-75
2022/04/06 07:50:08;;;;;;;0.60;0.60;;;22.50;47.20;;;;;;5076862;28;20049;-76
2022/04/06 07:52:36;;;;;;;1.27;0.98;;;22.40;47.10;;;;;;5076950;28;20092;-76
2022/04/06 07:55:07;;;;;;;7.43;1.80;;;22.50;45.30;;;;;;5076567;28;20036;-70
2022/04/06 07:57:34;;;;;;;2.30;1.13;;;22.50;44.00;;;;;;5076404;28;20037;-76
2022/04/06 08:00:07;;;;;;;1.05;0.98;;;22.60;42.70;;;;;;5076665;28;20045;-81
2022/04/06 08:02:33;;;;;;;3.10;1.00;;;22.40;41.50;;;;;;5075749;28;20037;-70
2022/04/06 08:05:01;;;;;;;0.35;0.35;;;22.50;41.10;;;;;;5075705;28;20052;-70
2022/04/06 08:07:27;;;;;;;3.53;1.70;;;22.40;40.50;;;;;;5075492;28;20093;-70
2022/04/06 08:09:53;;;;;;;1.65;0.68;;;22.40;40.30;;;;;;5076390;28;20032;-76
2022/04/06 08:12:19;;;;;;;2.40;1.33;;;22.50;38.90;;;;;;5076706;28;20045;-77
2022/04/06 08:14:48;;;;;;;3.08;1.33;;;22.50;40.00;;;;;;5075612;28;20041;-78
2022/04/06 08:17:15;;;;;;;0.90;0.63;;;22.50;40.10;;;;;;5076202;28;20041;-78
2022/04/06 08:19:41;;;;;;;1.52;0.90;;;22.50;39.90;;;;;;5075771;28;20048;-78
2022/04/06 08:22:07;;;;;;;2.25;1.33;;;22.50;39.30;;;;;;5076388;28;20045;-78
2022/04/06 08:24:34;;;;;;;0.95;0.65;;;22.50;38.50;;;;;;5076051;28;20047;-74
2022/04/06 08:27:00;;;;;;;0.70;0.70;;;22.50;38.00;;;;;;5075797;28;20092;-70
2022/04/06 08:29:26;;;;;;;0.90;0.80;;;22.40;37.10;;;;;;5076329;28;20170;-69
2022/04/06 08:31:53;;;;;;;2.10;1.50;;;22.60;37.10;;;;;;5076231;28;20037;-69
2022/04/06 08:34:19;;;;;;;3.25;1.33;;;22.30;35.40;;;;;;5076198;28;20063;-77
2022/04/06 08:36:45;;;;;;;1.10;0.82;;;22.40;35.10;;;;;;5075445;28;20051;-76
2022/04/06 08:39:11;;;;;;;7.18;1.35;;;22.40;37.00;;;;;;5075910;28;20044;-76
2022/04/06 08:41:38;;;;;;;1.27;1.02;;;22.40;37.50;;;;;;5076251;28;20045;-71
2022/04/06 08:44:04;;;;;;;0.30;0.30;;;22.40;37.60;;;;;;5076105;28;20071;-70
2022/04/06 08:46:39;;;;;;;1.45;1.08;;;22.40;36.60;;;;;;5075919;28;20036;-71
2022/04/06 08:49:05;;;;;;;1.63;1.08;;;22.50;39.60;;;;;;5075622;28;20041;-71
2022/04/06 08:51:34;;;;;;;3.78;3.28;;;22.50;38.70;;;;;;5075805;28;20493;-71
2022/04/06 08:54:00;;;;;;;3.13;1.92;;;22.60;41.00;;;;;;5075082;28;20049;-70
2022/04/06 08:56:27;;;;;;;2.28;1.90;;;22.80;40.10;;;;;;5076008;28;20048;-71
2022/04/06 08:58:53;;;;;;;2.80;1.13;;;23.00;40.20;;;;;;5076006;28;20041;-70
2022/04/06 09:01:21;;;;;;;2.20;1.35;;;23.10;40.60;;;;;;5075863;28;20045;-70
2022/04/06 09:03:48;;;;;;;2.10;1.17;;;23.20;42.40;;;;;;5074825;28;20059;-70
2022/04/06 09:06:14;;;;;;;7.80;1.38;;;23.20;41.60;;;;;;5075712;28;20040;-71
2022/04/06 09:08:47;;;;;;;1.98;1.70;;;23.20;38.00;;;;;;5075973;28;20060;-70
2022/04/06 09:11:15;;;;;;;;;;;23.10;35.80;;;;;;5081429;28;20037;-70
2022/04/06 09:13:42;;;;;;;3.22;1.85;;;22.90;35.20;;;;;;5085519;28;19909;-70
2022/04/06 09:16:13;;;;;;;1.10;1.10;;;22.90;35.70;;;;;;5075434;28;20045;-70
2022/04/06 09:18:44;;;;;;;2.13;1.55;;;22.80;35.50;;;;;;5075821;28;20037;-70
2022/04/06 09:21:13;;;;;;;3.03;1.70;;;22.70;35.20;;;;;;5075492;28;20049;-70
2022/04/06 09:23:39;;;;;;;2.42;1.60;;;22.80;34.90;;;;;;5075258;28;20040;-70
2022/04/06 09:26:11;;;;;;;4.28;1.40;;;22.80;36.10;;;;;;5075236;28;20045;-70
2022/04/06 09:28:42;;;;;;;2.63;1.38;;;22.70;36.20;;;;;;5075319;28;20033;-70
2022/04/06 09:31:12;;;;;;;1.23;1.00;;;22.70;36.30;;;;;;5075650;28;20048;-68
2022/04/06 09:33:41;;;;;;;3.58;1.85;;;22.60;39.90;;;;;;5075538;28;20044;-69
2022/04/06 09:36:20;;;;;;;2.28;1.40;;;22.80;39.10;;;;;;5075286;28;20151;-69
2022/04/06 09:38:48;;;;;;;15.57;3.05;;;23.00;40.30;;;;;;5075182;28;20072;-70
2022/04/06 09:41:15;;;;;;;2.20;1.92;;;23.10;42.10;;;;;;5075394;28;20056;-70
2022/04/06 09:43:46;;;;;;;5.50;2.00;;;23.20;43.80;;;;;;5075326;28;20104;-69
2022/04/06 09:49:15;;;;;;;2.63;1.70;;;23.30;37.30;;;;;;5075347;28;20143;-70
2022/04/06 09:51:43;;;;;;;2.42;1.58;;;23.10;35.20;;;;;;5075390;28;20555;-71
2022/04/06 09:54:12;;;;;;;2.03;1.90;;;23.20;35.30;;;;;;5075337;28;20044;-71
2022/04/06 09:56:40;;;;;;;22.40;2.75;;;23.00;36.30;;;;;;5074599;28;20741;-71
2022/04/06 09:59:07;;;;;;;1.98;1.17;;;23.10;40.70;;;;;;5074025;28;20052;-69
2022/04/06 10:01:39;;;;;;;4.30;2.17;;;23.00;38.00;;;;;;5075135;28;20064;-70
2022/04/06 10:04:13;;;;;;;1.85;1.50;;;23.00;41.20;;;;;;5075341;28;20044;-71
2022/04/06 10:06:42;;;;;;;4.97;1.40;;;23.20;50.10;;;;;;5078079;28;20047;-70
2022/04/06 10:09:10;;;;;;;6.47;1.95;;;23.20;46.20;;;;;;5078760;28;20101;-70
2022/04/06 10:11:39;;;;;;;1.20;1.10;;;23.20;45.30;;;;;;5078771;28;20184;-69
2022/04/06 10:14:08;;;;;;;2.83;1.67;;;23.10;45.30;;;;;;5078903;28;20037;-70
2022/04/06 10:16:38;;;;;;;1.50;1.40;;;23.20;45.40;;;;;;5078514;28;20033;-70
2022/04/06 10:19:13;;;;;;;2.17;1.60;;;23.20;45.30;;;;;;5061406;28;20056;-70
2022/04/06 10:21:45;;;;;;;5.25;1.63;;;23.20;46.00;;;;;;5078568;28;20105;-70
2022/04/06 10:24:32;;;;;;;3.17;1.67;;;23.10;45.30;;;;;;5078450;28;20068;-69
2022/04/06 10:27:13;;;;;;;2.20;1.40;;;23.10;44.50;;;;;;5077334;28;20255;-69
2022/04/06 10:30:17;;;;;;;2.33;1.30;;;23.00;45.30;;;;;;5078436;28;20041;-71
2022/04/06 10:32:50;;;;;;;3.97;1.42;;;23.00;46.00;;;;;;5078472;28;20037;-70
2022/04/06 10:35:24;;;;;;;3.25;1.33;;;23.10;46.10;;;;;;5078169;28;20063;-70
2022/04/06 10:37:57;;;;;;;2.55;1.52;;;23.00;46.30;;;;;;5078060;28;20045;-70
2022/04/06 10:40:24;;;;;;;;;;;22.90;46.30;;;;;;5078838;28;20037;-70
2022/04/06 10:42:51;;;;;;;2.38;1.50;;;23.00;46.50;;;;;;5078155;28;19923;-69
2022/04/06 10:45:27;;;;;;;2.28;1.48;;;22.90;46.60;;;;;;5077725;28;20041;-69
2022/04/06 10:48:10;;;;;;;1.77;1.38;;;22.90;46.70;;;;;;5078243;28;20093;-69
2022/04/06 10:50:36;;;;;;;;;;;23.00;46.00;;;;;;5078517;28;20037;-69
2022/04/06 10:53:21;;;;;;;2.15;1.42;;;22.90;47.00;;;;;;5078190;28;19991;-70
2022/04/06 10:56:11;;;;;;;1.38;1.23;;;23.00;47.00;;;;;;5077960;28;20053;-70
2022/04/06 10:58:56;;;;;;;1.55;1.30;;;22.90;47.20;;;;;;5076730;28;20041;-71
2022/04/06 11:01:26;;;;;;;1.50;1.40;;;23.00;47.00;;;;;;5077533;28;20045;-72
2022/04/06 11:03:59;;;;;;;2.70;1.27;;;22.90;46.70;;;;;;5077461;28;20108;-71
2022/04/06 11:06:48;;;;;;;3.90;1.10;;;22.90;46.30;;;;;;5060111;28;20048;-71
2022/04/06 11:12:23;;;;;;;2.40;1.20;;;22.90;46.30;;;;;;5077323;28;20025;-70
2022/04/06 11:14:53;;;;;;;2.90;1.98;;;22.80;46.50;;;;;;5077384;28;20045;-70
2022/04/06 11:17:34;;;;;;;3.15;1.58;;;22.80;46.50;;;;;;5076487;28;20045;-71
2022/04/06 11:20:20;;;;;;;1.77;1.30;;;22.80;49.30;;;;;;5077546;28;20045;-72
2022/04/06 11:22:54;;;;;;;4.70;2.00;;;22.80;49.80;;;;;;5077401;28;20037;-72
2022/04/06 11:25:30;;;;;;;1.13;0.98;;;22.90;49.60;;;;;;5077197;28;20048;-72
2022/04/06 11:28:13;;;;;;;3.25;2.40;;;22.80;48.90;;;;;;5077403;28;20041;-72
2022/04/06 11:30:43;;;;;;;6.25;1.42;;;22.90;50.10;;;;;;5077438;28;20147;-71
2022/04/06 11:33:09;;;;;;;7.00;1.55;;;22.90;50.00;;;;;;5077263;28;20108;-70
2022/04/06 11:35:37;;;;;;;5.25;2.33;;;22.90;49.90;;;;;;5077080;28;20049;-72
2022/04/06 11:38:04;;;;;;;9.20;1.80;;;22.80;49.60;;;;;;5077367;28;20060;-72
2022/04/06 11:40:31;;;;;;;2.55;1.35;;;22.70;50.00;;;;;;5076928;28;20100;-73
2022/04/06 11:42:58;;;;;;;2.78;1.52;;;22.70;49.30;;;;;;5076735;28;20041;-72
2022/04/06 11:45:37;;;;;;;5.45;1.30;;;22.80;49.40;;;;;;5076978;28;20056;-72
2022/04/06 11:48:14;;;;;;;2.63;1.33;;;22.80;49.10;;;;;;5076819;28;20044;-72
2022/04/06 11:50:41;;;;;;;2.53;1.15;;;22.80;49.30;;;;;;5074850;28;20033;-72
2022/04/06 11:53:15;;;;;;;4.57;1.90;;;22.70;47.20;;;;;;5076928;28;20041;-72
2022/04/06 11:55:49;;;;;;;5.07;2.22;;;22.80;49.10;;;;;;5076561;28;20064;-71
2022/04/06 11:58:29;;;;;;;2.80;1.63;;;22.90;49.50;;;;;;5075427;28;20040;-71
2022/04/06 12:01:05;;;;;;;10.18;2.53;;;22.70;49.20;;;;;;5076677;28;20052;-71
2022/04/06 12:03:33;;;;;;;3.17;1.67;;;22.70;49.20;;;;;;5076855;28;20060;-70
2022/04/06 12:06:01;;;;;;;1.02;0.90;;;22.80;49.30;;;;;;5075955;28;20068;-70
2022/04/06 12:08:27;;;;;;;1.90;1.48;;;22.80;49.20;;;;;;5076472;28;20045;-70
2022/04/06 12:10:56;;;;;;;1.80;1.70;;;22.90;48.00;;;;;;5076737;28;20036;-71
2022/04/06 12:13:25;;;;;;;2.83;1.65;;;22.80;47.90;;;;;;5076011;28;20052;-70
2022/04/06 12:15:54;;;;;;;4.28;1.25;;;22.80;48.50;;;;;;5076102;28;20044;-70
2022/04/06 12:18:22;;;;;;;1.30;1.20;;;22.80;48.80;;;;;;5076621;28;20044;-70
2022/04/06 12:20:49;;;;;;;1.50;1.30;;;22.80;48.80;;;;;;5076538;28;20033;-70
2022/04/06 12:23:17;;;;;;;1.75;1.40;;;22.70;48.60;;;;;;5075738;28;20053;-70
2022/04/06 12:25:44;;;;;;;5.75;2.97;;;22.80;48.60;;;;;;5076285;28;20044;-70
2022/04/06 12:28:22;;;;;;;2.33;1.55;;;22.70;48.70;;;;;;5075951;28;20041;-70
2022/04/06 12:30:51;;;;;;;4.65;1.25;;;22.70;48.60;;;;;;5076083;28;20040;-70
2022/04/06 12:33:39;;;;;;;3.03;1.58;;;22.70;48.60;;;;;;5076200;28;20040;-70
2022/04/06 12:36:24;;;;;;;2.05;1.33;;;22.70;48.60;;;;;;5075864;28;20088;-71
2022/04/06 12:39:08;;;;;;;4.18;1.67;;;22.70;48.60;;;;;;5075752;28;20056;-70
2022/04/06 12:42:02;;;;;;;1.50;1.10;;;22.70;48.70;;;;;;5075374;28;20067;-70
2022/04/06 12:44:30;;;;;;;1.35;1.25;;;22.80;48.70;;;;;;5070424;28;20071;-70
2022/04/06 12:46:56;;;;;;;2.63;1.23;;;22.70;48.40;;;;;;5076085;28;20051;-70
2022/04/06 12:49:41;;;;;;;1.95;1.10;;;22.80;48.60;;;;;;5076121;28;20047;-70
2022/04/06 12:52:15;;;;;;;1.10;1.00;;;22.70;48.60;;;;;;5075797;28;20037;-70
2022/04/06 12:54:43;;;;;;;2.80;1.73;;;22.80;48.70;;;;;;5076035;28;20045;-70
2022/04/06 12:57:13;;;;;;;2.53;1.30;;;22.70;48.80;;;;;;5075734;28;20109;-70
2022/04/06 12:59:50;;;;;;;3.70;1.10;;;22.80;48.70;;;;;;5075972;28;20072;-70